createdAt,value
2023-05-16T00:03:28.487Z,97657.72
2023-05-16T00:08:31.420Z,97663.63
2023-05-16T00:13:33.557Z,97656.53
2023-05-16T00:18:39.360Z,97663.88
2023-05-16T00:23:41.447Z,97666.22
2023-05-16T00:28:43.525Z,97649.28
2023-05-16T00:33:45.650Z,97659.81
2023-05-16T00:38:47.909Z,97649.38
2023-05-16T00:43:50.362Z,97651.94
2023-05-16T00:48:52.826Z,97646.81
2023-05-16T00:53:57.012Z,97649.28
2023-05-16T00:58:59.717Z,97644.03
2023-05-16T01:04:02.411Z,97655.25
2023-05-16T01:09:06.080Z,97652.25
2023-05-16T01:14:49.615Z,97650.84
2023-05-16T01:20:17.600Z,97656.78
2023-05-16T01:26:07.678Z,97654.69
2023-05-16T01:31:09.853Z,97661.34
2023-05-16T01:36:40.999Z,97655.50
2023-05-16T01:42:12.895Z,97657.94
2023-05-16T01:47:19.627Z,97664.34
2023-05-16T01:52:45.328Z,97648.78
2023-05-16T01:57:50.622Z,97652.56
2023-05-16T02:02:53.018Z,97663.38
2023-05-16T02:07:55.777Z,97661.06
2023-05-16T02:12:58.079Z,97663.50
2023-05-16T02:18:00.274Z,97672.06
2023-05-16T02:23:03.468Z,97663.78
2023-05-16T02:28:07.593Z,97656.94
2023-05-16T02:33:11.611Z,97661.34
2023-05-16T02:38:17.605Z,97660.59
2023-05-16T02:43:19.813Z,97665.59
2023-05-16T02:48:22.393Z,97669.53
2023-05-16T02:53:24.752Z,97668.91
2023-05-16T02:58:26.951Z,97668.34
2023-05-16T03:03:30.199Z,97678.69
2023-05-16T03:08:32.759Z,97675.25
2023-05-16T03:13:34.936Z,97671.16
2023-05-16T03:18:37.308Z,97675.25
2023-05-16T03:23:39.651Z,97672.31
2023-05-16T03:28:41.917Z,97676.75
2023-05-16T03:33:44.210Z,97674.16
2023-05-16T03:38:46.333Z,97666.84
2023-05-16T03:43:48.442Z,97666.50
2023-05-16T03:48:50.616Z,97673.50
2023-05-16T03:53:52.970Z,97675.97
2023-05-16T03:58:55.330Z,97674.44
2023-05-16T04:03:57.451Z,97684.47
2023-05-16T04:08:59.572Z,97691.59
2023-05-16T04:14:02.021Z,97689.34
2023-05-16T04:19:04.499Z,97696.34
2023-05-16T04:24:07.760Z,97692.09
2023-05-16T04:29:10.321Z,97694.97
2023-05-16T04:34:13.321Z,97702.69
2023-05-16T04:39:15.628Z,97701.19
2023-05-16T04:44:17.870Z,97703.28
2023-05-16T04:49:20.684Z,97711.81
2023-05-16T04:54:23.078Z,97707.81
2023-05-16T04:59:25.802Z,97714.59
2023-05-16T05:04:27.965Z,97720.38
2023-05-16T05:09:30.151Z,97726.78
2023-05-16T05:14:32.265Z,97738.44
2023-05-16T05:19:34.481Z,97733.84
2023-05-16T05:24:37.197Z,97734.19
2023-05-16T05:29:40.471Z,97730.00
2023-05-16T05:34:42.585Z,97731.91
2023-05-16T05:39:45.278Z,97726.63
2023-05-16T05:44:47.423Z,97732.94
2023-05-16T05:49:50.551Z,97738.88
2023-05-16T05:54:52.988Z,97743.38
2023-05-16T05:59:55.477Z,97750.69
2023-05-16T06:04:57.706Z,97757.97
2023-05-16T06:10:05.274Z,97759.00
2023-05-16T06:15:08.706Z,97761.56
2023-05-16T06:20:11.981Z,97767.59
2023-05-16T06:25:14.189Z,97764.44
2023-05-16T06:30:16.319Z,97766.84
2023-05-16T06:35:18.638Z,97770.38
2023-05-16T06:40:21.070Z,97770.88
2023-05-16T06:45:23.516Z,97776.84
2023-05-16T06:50:28.525Z,97777.53
2023-05-16T06:55:30.963Z,97779.09
2023-05-16T07:00:33.305Z,97775.69
2023-05-16T07:05:35.556Z,97787.38
2023-05-16T07:10:37.929Z,97795.13
2023-05-16T07:15:40.139Z,97787.53
2023-05-16T07:20:42.397Z,97792.50
2023-05-16T07:25:44.950Z,97794.09
2023-05-16T07:30:47.449Z,97801.53
2023-05-16T07:35:51.122Z,97797.47
2023-05-16T07:40:54.224Z,97802.56
2023-05-16T07:45:56.799Z,97806.94
2023-05-16T07:50:59.187Z,97813.44
2023-05-16T07:56:01.534Z,97814.28
2023-05-16T08:01:03.994Z,97814.59
2023-05-16T08:06:06.693Z,97815.34
2023-05-16T08:11:09.051Z,97823.97
2023-05-16T08:16:12.091Z,97823.13
2023-05-16T08:21:14.783Z,97825.47
2023-05-16T08:26:18.519Z,97823.13
2023-05-16T08:31:21.462Z,97838.13
2023-05-16T08:36:26.652Z,97837.84
2023-05-16T08:41:29.547Z,97841.34
2023-05-16T08:46:36.967Z,97849.41
2023-05-16T08:51:40.453Z,97848.72
2023-05-16T08:56:44.483Z,97855.66
2023-05-16T09:01:47.758Z,97863.72
2023-05-16T09:06:51.257Z,97869.56
2023-05-16T09:11:53.709Z,97867.66
2023-05-16T09:17:10.223Z,97857.66
2023-05-16T09:22:15.970Z,97854.63
2023-05-16T09:27:18.563Z,97849.56
2023-05-16T09:32:21.049Z,97848.53
2023-05-16T09:37:23.372Z,97844.44
2023-05-16T09:42:26.219Z,97852.78
2023-05-16T09:47:29.072Z,97841.31
2023-05-16T09:52:31.401Z,97844.72
2023-05-16T09:57:33.716Z,97842.97
2023-05-16T10:02:38.859Z,97845.09
2023-05-16T10:07:43.166Z,97838.38
2023-05-16T10:12:46.243Z,97836.72
2023-05-16T10:17:53.804Z,97841.03
2023-05-16T10:22:58.648Z,97827.66
2023-05-16T10:28:02.773Z,97833.97
2023-05-16T10:33:05.315Z,97846.41
2023-05-16T10:38:12.161Z,97836.84
2023-05-16T10:43:28.110Z,97838.06
2023-05-16T10:48:36.502Z,97845.88
2023-05-16T10:53:38.626Z,97843.31
2023-05-16T10:58:46.637Z,97848.28
2023-05-16T11:03:57.925Z,97858.94
2023-05-16T11:09:06.111Z,97861.13
2023-05-16T11:14:08.839Z,97869.78
2023-05-16T11:19:11.170Z,97872.53
2023-05-16T11:24:30.383Z,97874.91
2023-05-16T11:29:36.715Z,97891.97
2023-05-16T11:34:39.838Z,97887.97
2023-05-16T11:39:42.368Z,97887.81
2023-05-16T11:44:45.481Z,97894.16
2023-05-16T11:49:49.558Z,97894.53
2023-05-16T11:54:52.166Z,97901.28
2023-05-16T11:59:54.989Z,97901.28
2023-05-16T12:04:57.351Z,97910.38
2023-05-16T12:09:59.621Z,97909.44
2023-05-16T12:15:04.621Z,97919.88
2023-05-16T12:20:13.658Z,97918.34
2023-05-16T12:25:28.979Z,97921.75
2023-05-16T12:30:33.399Z,97922.88
2023-05-16T12:35:39.697Z,97918.16
2023-05-16T12:40:44.355Z,97922.34
2023-05-16T12:45:55.213Z,97920.44
2023-05-16T12:50:57.649Z,97923.28
2023-05-16T12:55:59.877Z,97924.81
2023-05-16T13:01:02.370Z,97933.81
2023-05-16T13:06:05.102Z,97940.25
2023-05-16T13:11:07.419Z,97941.88
2023-05-16T13:16:10.512Z,97952.53
2023-05-16T13:21:12.851Z,97955.72
2023-05-16T13:26:15.207Z,97961.22
2023-05-16T13:31:17.613Z,97964.09
2023-05-16T13:36:19.951Z,97966.75
2023-05-16T13:41:22.690Z,97966.28
2023-05-16T13:46:25.364Z,97966.66
2023-05-16T13:51:27.703Z,97968.72
2023-05-16T13:56:29.861Z,97966.56
2023-05-16T14:01:32.109Z,97974.50
2023-05-16T14:06:34.497Z,97966.91
2023-05-16T14:11:36.689Z,97975.41
2023-05-16T14:16:39.236Z,97971.69
2023-05-16T14:21:41.749Z,97972.13
2023-05-16T14:26:44.038Z,97967.41
2023-05-16T14:31:47.376Z,97966.34
2023-05-16T14:36:49.768Z,97967.69
2023-05-16T14:41:52.591Z,97967.28
2023-05-16T14:46:55.720Z,97978.88
2023-05-16T14:51:58.044Z,97976.69
2023-05-16T14:57:00.434Z,97980.59
2023-05-16T15:02:02.791Z,97989.38
2023-05-16T15:07:05.299Z,97997.75
2023-05-16T15:12:08.326Z,97989.84
2023-05-16T15:17:10.961Z,97993.22
2023-05-16T15:22:13.337Z,97994.09
2023-05-16T15:27:15.991Z,97997.31
2023-05-16T15:32:18.755Z,97993.66
2023-05-16T15:37:21.553Z,98004.47
2023-05-16T15:42:23.850Z,98006.75
2023-05-16T15:47:27.631Z,98002.13
2023-05-16T15:52:29.792Z,98003.41
2023-05-16T15:57:32.095Z,98000.44
2023-05-16T16:02:34.478Z,98005.00
2023-05-16T16:07:36.885Z,98005.50
2023-05-16T16:12:40.201Z,98007.31
2023-05-16T16:17:42.428Z,98015.19
2023-05-16T16:22:44.642Z,98011.16
2023-05-16T16:27:46.783Z,98025.13
2023-05-16T16:32:49.179Z,98015.06
2023-05-16T16:38:05.706Z,98023.25
2023-05-16T16:43:09.437Z,98019.69
2023-05-16T16:48:11.978Z,98030.00
2023-05-16T16:53:14.298Z,98032.81
2023-05-16T16:58:16.458Z,98038.72
2023-05-16T17:03:19.066Z,98041.13
2023-05-16T17:08:21.799Z,98050.81
2023-05-16T17:13:24.133Z,98048.66
2023-05-16T17:18:27.001Z,98061.78
2023-05-16T17:23:29.186Z,98060.28
2023-05-16T17:28:32.697Z,98060.59
2023-05-16T17:33:34.997Z,98063.66
2023-05-16T17:38:37.196Z,98067.59
2023-05-16T17:43:39.473Z,98065.78
2023-05-16T17:48:42.400Z,98066.72
2023-05-16T17:53:45.292Z,98066.72
2023-05-16T17:58:47.520Z,98073.09
2023-05-16T18:03:50.100Z,98072.69
2023-05-16T18:08:52.388Z,98081.69
2023-05-16T18:13:54.962Z,98088.41
2023-05-16T18:18:58.473Z,98096.59
2023-05-16T18:24:00.918Z,98102.56
2023-05-16T18:29:03.829Z,98101.16
2023-05-16T18:34:05.971Z,98119.75
2023-05-16T18:39:10.781Z,98126.13
2023-05-16T18:44:13.547Z,98129.50
2023-05-16T18:49:16.372Z,98132.22
2023-05-16T18:54:18.503Z,98134.19
2023-05-16T18:59:21.330Z,98138.69
2023-05-16T19:04:23.976Z,98148.00
2023-05-16T19:09:26.558Z,98159.13
2023-05-16T19:14:28.798Z,98164.59
2023-05-16T19:19:31.526Z,98156.97
2023-05-16T19:24:33.831Z,98168.28
2023-05-16T19:29:36.271Z,98180.91
2023-05-16T19:34:38.480Z,98187.91
2023-05-16T19:39:40.800Z,98190.50
2023-05-16T19:44:43.251Z,98199.66
2023-05-16T19:49:45.741Z,98201.78
2023-05-16T19:54:47.944Z,98205.00
2023-05-16T19:59:52.719Z,98213.69
2023-05-16T20:04:55.345Z,98209.13
2023-05-16T20:09:57.715Z,98215.22
2023-05-16T20:15:00.128Z,98214.94
2023-05-16T20:20:02.971Z,98229.59
2023-05-16T20:25:10.531Z,98224.22
2023-05-16T20:30:13.560Z,98233.56
2023-05-16T20:35:16.129Z,98235.38
2023-05-16T20:40:18.496Z,98239.22
2023-05-16T20:45:21.074Z,98236.47
2023-05-16T20:50:23.262Z,98247.91
2023-05-16T20:55:26.716Z,98250.03
2023-05-16T21:00:29.190Z,98249.44
2023-05-16T21:05:33.735Z,98251.56
2023-05-16T21:10:36.047Z,98257.66
2023-05-16T21:15:38.645Z,98260.56
2023-05-16T21:20:40.857Z,98267.75
2023-05-16T21:25:43.021Z,98262.09
2023-05-16T21:30:45.216Z,98268.31
2023-05-16T21:35:47.436Z,98279.00
2023-05-16T21:40:49.634Z,98279.63
2023-05-16T21:45:51.957Z,98282.81
2023-05-16T21:50:54.319Z,98283.91
2023-05-16T21:55:56.894Z,98293.19
2023-05-16T22:00:59.077Z,98293.59
2023-05-16T22:06:01.616Z,98298.28
2023-05-16T22:11:03.816Z,98310.81
2023-05-16T22:16:06.860Z,98310.03
2023-05-16T22:21:09.040Z,98308.50
2023-05-16T22:26:11.304Z,98314.56
2023-05-16T22:31:13.599Z,98314.28
2023-05-16T22:36:15.909Z,98309.41
2023-05-16T22:41:18.183Z,98319.22
2023-05-16T22:46:23.145Z,98312.34
2023-05-16T22:51:25.825Z,98315.41
2023-05-16T22:56:28.121Z,98322.97
2023-05-16T23:01:30.644Z,98319.56
2023-05-16T23:06:32.909Z,98321.34
2023-05-16T23:11:35.302Z,98326.38
2023-05-16T23:16:37.635Z,98328.63
2023-05-16T23:21:40.154Z,98341.56
2023-05-16T23:26:42.414Z,98339.28
2023-05-16T23:31:45.569Z,98345.28
2023-05-16T23:36:47.671Z,98351.53
2023-05-16T23:41:49.791Z,98350.28
2023-05-16T23:46:51.988Z,98359.59
2023-05-16T23:51:57.863Z,98357.56
2023-05-16T23:57:00.915Z,98367.09
